createdAt,value
2017-09-03T00:01:11.286Z,78.00
2017-09-03T00:03:40.669Z,78.20
2017-09-03T00:06:10.734Z,76.90
2017-09-03T00:08:40.316Z,76.90
2017-09-03T00:11:09.581Z,77.70
2017-09-03T00:13:40.443Z,77.50
2017-09-03T00:16:09.881Z,77.80
2017-09-03T00:18:39.282Z,78.20
2017-09-03T00:21:08.614Z,79.80
2017-09-03T00:23:38.032Z,79.60
2017-09-03T00:26:08.011Z,80.30
2017-09-03T00:28:37.311Z,80.30
2017-09-03T00:31:09.440Z,80.70
2017-09-03T00:33:38.902Z,81.20
2017-09-03T00:36:09.094Z,81.20
2017-09-03T00:38:38.591Z,81.10
2017-09-03T00:41:07.994Z,81.40
2017-09-03T00:43:38.423Z,81.70
2017-09-03T00:46:07.934Z,81.70
2017-09-03T00:48:39.320Z,82.00
2017-09-03T00:51:09.024Z,82.20
2017-09-03T00:53:38.617Z,82.20
2017-09-03T00:56:08.724Z,82.10
2017-09-03T00:58:38.347Z,82.30
2017-09-03T01:01:08.040Z,82.20
2017-09-03T01:03:40.467Z,82.80
2017-09-03T01:06:14.429Z,82.50
2017-09-03T01:08:43.643Z,83.00
2017-09-03T01:11:13.214Z,82.80
2017-09-03T01:13:42.549Z,82.80
2017-09-03T01:16:12.005Z,83.30
2017-09-03T01:18:41.286Z,83.20
2017-09-03T01:21:10.548Z,83.60
2017-09-03T01:23:40.248Z,83.80
2017-09-03T01:26:32.322Z,83.80
2017-09-03T01:29:01.634Z,84.10
2017-09-03T01:31:30.914Z,84.20
2017-09-03T01:34:00.215Z,83.80
2017-09-03T01:36:30.779Z,84.20
2017-09-03T01:39:01.625Z,84.50
2017-09-03T01:42:06.628Z,84.50
2017-09-03T01:44:35.929Z,84.50
2017-09-03T01:47:06.018Z,84.10
2017-09-03T01:49:35.769Z,84.00
2017-09-03T01:52:05.019Z,84.20
2017-09-03T01:54:34.633Z,84.30
2017-09-03T01:57:03.925Z,84.40
2017-09-03T01:59:33.223Z,84.20
2017-09-03T02:02:02.772Z,84.60
2017-09-03T02:04:32.060Z,84.30
2017-09-03T02:07:01.267Z,84.10
2017-09-03T02:09:30.628Z,84.10
2017-09-03T02:12:00.038Z,83.90
2017-09-03T02:14:29.515Z,84.10
2017-09-03T02:16:58.986Z,83.80
2017-09-03T02:19:28.600Z,83.80
2017-09-03T02:21:58.030Z,84.10
2017-09-03T02:24:28.990Z,84.30
2017-09-03T02:26:58.223Z,84.40
2017-09-03T02:29:27.541Z,84.60
2017-09-03T02:31:57.766Z,85.50
2017-09-03T02:34:27.771Z,85.80
2017-09-03T02:36:58.297Z,85.90
2017-09-03T02:39:31.339Z,85.80
2017-09-03T02:42:00.603Z,85.80
2017-09-03T02:44:29.839Z,85.50
2017-09-03T02:46:59.392Z,85.30
2017-09-03T02:49:29.140Z,85.30
2017-09-03T02:51:58.391Z,85.20
2017-09-03T02:54:27.563Z,84.90
2017-09-03T02:56:56.818Z,84.60
2017-09-03T02:59:26.192Z,84.50
2017-09-03T03:01:55.931Z,85.20
2017-09-03T03:04:25.884Z,84.20
2017-09-03T03:06:55.436Z,84.20
2017-09-03T03:09:25.486Z,84.20
2017-09-03T03:11:55.258Z,84.30
2017-09-03T03:14:26.073Z,84.10
2017-09-03T03:16:55.299Z,83.90
2017-09-03T03:19:25.389Z,83.40
2017-09-03T03:21:54.779Z,83.40
2017-09-03T03:24:24.146Z,83.70
2017-09-03T03:26:54.138Z,83.90
2017-09-03T03:29:24.540Z,83.90
2017-09-03T03:31:55.083Z,83.80
2017-09-03T03:34:24.459Z,84.00
2017-09-03T03:36:53.911Z,84.30
2017-09-03T03:39:23.842Z,84.70
2017-09-03T03:41:53.859Z,84.80
2017-09-03T03:44:23.714Z,84.80
2017-09-03T03:46:53.083Z,84.80
2017-09-03T03:49:22.376Z,84.50
2017-09-03T03:51:51.568Z,84.60
2017-09-03T03:54:20.768Z,84.80
2017-09-03T03:56:50.090Z,85.00
2017-09-03T03:59:19.366Z,84.90
2017-09-03T04:01:49.083Z,85.00
2017-09-03T04:04:18.953Z,85.20
2017-09-03T04:06:48.148Z,85.10
2017-09-03T04:09:17.422Z,85.20
2017-09-03T04:11:47.144Z,85.00
2017-09-03T04:14:17.125Z,84.90
2017-09-03T04:16:46.624Z,85.00
2017-09-03T04:19:15.932Z,84.90
2017-09-03T04:21:45.586Z,84.70
2017-09-03T04:24:15.015Z,84.80
2017-09-03T04:26:45.671Z,85.30
2017-09-03T04:29:15.809Z,85.70
2017-09-03T04:31:45.092Z,85.70
2017-09-03T04:34:14.471Z,85.70
2017-09-03T04:36:44.120Z,85.60
2017-09-03T04:39:13.885Z,85.70
2017-09-03T04:41:43.899Z,85.70
2017-09-03T04:44:14.341Z,85.70
2017-09-03T04:46:43.649Z,85.60
2017-09-03T04:49:12.956Z,85.80
2017-09-03T04:51:42.487Z,85.80
2017-09-03T04:54:11.696Z,85.70
2017-09-03T04:56:40.763Z,85.80
2017-09-03T04:59:09.958Z,86.00
2017-09-03T05:01:39.181Z,85.80
2017-09-03T05:04:08.511Z,85.80
2017-09-03T05:06:38.044Z,85.60
2017-09-03T05:09:08.151Z,85.00
2017-09-03T05:11:37.302Z,84.80
2017-09-03T05:14:07.075Z,85.00
2017-09-03T05:16:36.377Z,85.00
2017-09-03T05:19:05.610Z,84.80
2017-09-03T05:21:34.786Z,84.70
2017-09-03T05:24:03.967Z,84.50
2017-09-03T05:26:33.694Z,84.10
2017-09-03T05:29:02.870Z,84.10
2017-09-03T05:31:33.013Z,83.60
2017-09-03T05:34:02.270Z,83.60
2017-09-03T05:36:31.660Z,83.80
2017-09-03T05:39:01.536Z,83.90
2017-09-03T05:41:30.715Z,84.00
2017-09-03T05:44:00.786Z,83.90
2017-09-03T05:46:29.878Z,83.90
2017-09-03T05:48:59.079Z,84.10
2017-09-03T05:51:28.312Z,83.80
2017-09-03T05:53:58.269Z,83.40
2017-09-03T05:56:27.839Z,83.40
2017-09-03T05:58:57.883Z,83.60
2017-09-03T06:01:27.117Z,83.70
2017-09-03T06:03:56.345Z,83.60
2017-09-03T06:06:25.523Z,83.70
2017-09-03T06:08:55.421Z,83.50
2017-09-03T06:11:24.587Z,83.50
2017-09-03T06:13:54.216Z,83.20
2017-09-03T06:16:23.461Z,82.80
2017-09-03T06:18:52.917Z,82.70
2017-09-03T06:21:22.061Z,82.70
2017-09-03T06:23:52.077Z,82.80
2017-09-03T06:26:24.178Z,82.40
2017-09-03T06:28:53.477Z,82.80
2017-09-03T06:31:22.633Z,82.10
2017-09-03T06:33:52.304Z,82.10
2017-09-03T06:36:21.422Z,81.90
2017-09-03T06:38:50.807Z,81.30
2017-09-03T06:41:20.039Z,79.50
2017-09-03T06:43:49.754Z,76.80
2017-09-03T06:46:20.454Z,72.50
2017-09-03T06:48:49.663Z,72.50
2017-09-03T06:51:19.806Z,73.00
2017-09-03T06:53:51.245Z,74.30
2017-09-03T06:56:20.560Z,74.30
2017-09-03T06:58:49.943Z,74.90
2017-09-03T07:01:19.898Z,74.60
2017-09-03T07:03:51.206Z,74.70
2017-09-03T07:06:24.670Z,74.60
2017-09-03T07:08:56.091Z,74.70
2017-09-03T07:11:27.022Z,74.60
2017-09-03T07:13:59.012Z,74.80
2017-09-03T07:16:30.549Z,75.10
2017-09-03T07:19:08.770Z,74.70
2017-09-03T07:21:38.430Z,74.70
2017-09-03T07:24:08.832Z,74.40
2017-09-03T07:26:52.739Z,73.40
2017-09-03T07:29:23.054Z,72.50
2017-09-03T07:31:52.709Z,73.30
2017-09-03T07:34:22.643Z,73.00
2017-09-03T07:37:31.406Z,73.00
2017-09-03T07:40:03.857Z,72.80
2017-09-03T07:42:34.151Z,71.50
2017-09-03T07:45:03.575Z,72.50
2017-09-03T07:47:33.538Z,72.60
2017-09-03T07:50:03.038Z,72.10
2017-09-03T07:52:33.225Z,72.20
2017-09-03T07:55:02.574Z,72.20
2017-09-03T07:57:32.692Z,71.70
2017-09-03T08:00:03.040Z,71.50
2017-09-03T08:02:32.321Z,71.40
2017-09-03T08:05:02.250Z,71.00
2017-09-03T08:07:31.883Z,70.70
2017-09-03T08:10:02.184Z,71.10
2017-09-03T08:12:41.199Z,70.80
2017-09-03T08:18:39.759Z,69.40
2017-09-03T08:21:09.254Z,69.20
2017-09-03T08:23:38.709Z,68.50
2017-09-03T08:26:08.735Z,65.30
2017-09-03T08:28:38.869Z,62.50
2017-09-03T08:31:08.367Z,62.40
2017-09-03T08:33:37.723Z,57.40
2017-09-03T08:36:07.147Z,54.30
2017-09-03T08:38:36.287Z,52.90
2017-09-03T08:41:05.514Z,50.70
2017-09-03T08:43:34.809Z,47.90
2017-09-03T08:46:04.268Z,46.90
2017-09-03T08:48:34.308Z,47.20
2017-09-03T08:51:04.363Z,47.20
2017-09-03T08:53:33.634Z,47.10
2017-09-03T08:56:03.070Z,46.80
2017-09-03T08:58:34.288Z,45.30
2017-09-03T09:01:05.219Z,47.70
2017-09-03T09:03:35.411Z,47.70
2017-09-03T09:06:05.586Z,48.20
2017-09-03T09:08:39.448Z,48.20
2017-09-03T09:11:09.746Z,46.10
2017-09-03T09:13:39.551Z,43.50
2017-09-03T09:16:11.493Z,44.70
2017-09-03T09:18:43.561Z,44.20
2017-09-03T09:24:20.269Z,41.50
2017-09-03T09:26:50.888Z,38.90
2017-09-03T09:29:23.953Z,38.00
2017-09-03T09:31:59.707Z,38.90
2017-09-03T09:34:31.032Z,38.90
2017-09-03T09:37:00.443Z,37.60
2017-09-03T09:39:39.372Z,38.90
2017-09-03T09:42:14.965Z,38.90
2017-09-03T09:44:45.798Z,35.90
2017-09-03T09:47:15.829Z,36.10
2017-09-03T09:50:13.950Z,35.40
2017-09-03T09:52:58.347Z,34.80
2017-09-03T09:55:29.059Z,34.80
2017-09-03T09:57:58.970Z,35.80
2017-09-03T10:00:28.850Z,34.80
2017-09-03T10:02:58.346Z,36.60
2017-09-03T10:05:28.090Z,35.60
2017-09-03T10:07:58.826Z,34.40
2017-09-03T10:10:28.603Z,33.60
2017-09-03T10:12:57.979Z,32.10
2017-09-03T10:15:27.663Z,29.90
2017-09-03T10:17:56.961Z,32.30
2017-09-03T10:20:27.307Z,33.50
2017-09-03T10:22:58.801Z,34.10
2017-09-03T10:25:28.268Z,34.00
2017-09-03T10:27:58.580Z,33.90
2017-09-03T10:30:29.652Z,31.80
2017-09-03T10:32:59.092Z,32.30
2017-09-03T10:35:30.415Z,32.30
2017-09-03T10:38:00.466Z,30.00
2017-09-03T10:40:31.232Z,28.80
2017-09-03T10:43:01.635Z,28.70
2017-09-03T10:45:32.428Z,28.70
2017-09-03T10:48:04.036Z,30.40
2017-09-03T10:50:36.150Z,28.70
2017-09-03T10:53:07.596Z,28.70
2017-09-03T10:55:40.087Z,28.30
2017-09-03T10:58:10.499Z,30.50
2017-09-03T11:00:41.696Z,29.20
2017-09-03T11:03:13.093Z,29.90
2017-09-03T11:05:43.838Z,28.40
2017-09-03T11:08:19.357Z,27.10
2017-09-03T11:10:49.561Z,27.10
2017-09-03T11:13:19.996Z,27.20
2017-09-03T11:15:49.869Z,26.20
2017-09-03T11:18:22.241Z,27.70
2017-09-03T11:20:52.557Z,27.60
2017-09-03T11:23:21.927Z,29.10
2017-09-03T11:25:51.576Z,30.00
2017-09-03T11:28:21.654Z,27.10
2017-09-03T11:30:51.375Z,27.00
2017-09-03T11:33:21.255Z,25.80
2017-09-03T11:35:51.017Z,26.10
2017-09-03T11:38:26.602Z,27.20
2017-09-03T11:40:56.299Z,27.20
2017-09-03T11:43:26.587Z,27.60
2017-09-03T11:45:56.876Z,27.50
2017-09-03T11:48:26.863Z,26.60
2017-09-03T11:50:56.581Z,26.80
2017-09-03T11:53:25.910Z,26.50
2017-09-03T11:55:56.667Z,25.40
2017-09-03T11:58:26.310Z,25.30
2017-09-03T12:00:55.827Z,24.00
2017-09-03T12:03:25.092Z,23.90
2017-09-03T12:05:55.356Z,24.10
2017-09-03T12:08:24.797Z,23.90
2017-09-03T12:10:54.873Z,24.50
2017-09-03T12:13:24.987Z,25.60
2017-09-03T12:15:55.709Z,23.90
2017-09-03T12:18:26.438Z,23.60
2017-09-03T12:20:56.858Z,24.00
2017-09-03T12:23:26.559Z,24.00
2017-09-03T12:26:14.365Z,24.40
2017-09-03T12:28:48.114Z,24.70
2017-09-03T12:31:18.424Z,24.40
2017-09-03T12:33:48.136Z,24.70
2017-09-03T12:36:20.541Z,25.50
2017-09-03T12:38:57.616Z,26.70
2017-09-03T12:41:27.980Z,30.90
2017-09-03T12:44:07.221Z,30.90
2017-09-03T12:46:37.334Z,31.50
2017-09-03T12:49:12.301Z,32.50
2017-09-03T12:51:56.815Z,31.60
2017-09-03T12:54:46.642Z,29.20
2017-09-03T12:57:18.023Z,30.40
2017-09-03T12:59:47.715Z,30.90
2017-09-03T13:02:17.511Z,28.70
2017-09-03T13:04:48.856Z,28.00
2017-09-03T13:07:19.549Z,26.90
2017-09-03T13:09:52.010Z,25.10
2017-09-03T13:12:21.534Z,24.20
2017-09-03T13:14:53.137Z,24.40
2017-09-03T13:17:23.067Z,26.30
2017-09-03T13:19:56.382Z,28.80
2017-09-03T13:22:26.688Z,28.70
2017-09-03T13:24:57.359Z,28.30
2017-09-03T13:27:28.463Z,27.80
2017-09-03T13:30:00.030Z,30.30
2017-09-03T13:32:30.576Z,30.20
2017-09-03T13:35:00.384Z,31.90
2017-09-03T13:37:30.414Z,32.00
2017-09-03T13:40:00.918Z,32.00
2017-09-03T13:42:30.410Z,32.30
2017-09-03T13:45:00.158Z,31.00
2017-09-03T13:47:29.668Z,29.50
2017-09-03T13:49:59.766Z,28.10
2017-09-03T13:52:29.491Z,26.80
2017-09-03T13:54:59.219Z,27.70
2017-09-03T13:57:28.744Z,29.10
2017-09-03T14:00:00.061Z,27.50
2017-09-03T14:02:29.566Z,27.50
2017-09-03T14:04:59.095Z,29.40
2017-09-03T14:07:28.956Z,31.30
2017-09-03T14:09:58.532Z,33.40
2017-09-03T14:12:28.103Z,34.10
2017-09-03T14:14:57.583Z,34.70
2017-09-03T14:17:31.547Z,34.90
2017-09-03T14:20:00.846Z,35.80
2017-09-03T14:22:31.540Z,36.50
2017-09-03T14:25:01.526Z,36.50
2017-09-03T14:27:31.980Z,36.70
2017-09-03T14:30:01.438Z,36.60
2017-09-03T14:32:31.006Z,36.20
2017-09-03T14:35:00.583Z,36.20
2017-09-03T14:37:33.027Z,35.90
2017-09-03T14:40:05.054Z,35.60
2017-09-03T14:42:35.277Z,36.00
2017-09-03T14:45:05.661Z,36.10
2017-09-03T14:47:37.982Z,36.30
2017-09-03T14:50:07.809Z,36.60
2017-09-03T14:52:41.955Z,35.40
2017-09-03T14:55:11.946Z,35.10
2017-09-03T14:57:43.260Z,35.80
2017-09-03T15:00:13.225Z,36.50
2017-09-03T15:02:42.579Z,37.20
2017-09-03T15:05:11.843Z,37.10
2017-09-03T15:07:41.847Z,37.60
2017-09-03T15:10:11.227Z,37.70
2017-09-03T15:12:42.646Z,37.10
2017-09-03T15:15:13.155Z,37.20
2017-09-03T15:17:42.929Z,37.40
2017-09-03T15:20:12.575Z,37.50
2017-09-03T15:22:44.431Z,37.10
2017-09-03T15:25:15.449Z,37.00
2017-09-03T15:27:45.245Z,37.00
2017-09-03T15:30:14.812Z,37.10
2017-09-03T15:32:44.304Z,37.70
2017-09-03T15:35:15.146Z,39.10
2017-09-03T15:37:44.481Z,39.10
2017-09-03T15:40:14.237Z,38.80
2017-09-03T15:42:44.044Z,38.80
2017-09-03T15:45:15.579Z,39.30
2017-09-03T15:47:46.086Z,39.30
2017-09-03T15:50:15.926Z,38.70
2017-09-03T15:52:46.861Z,38.10
2017-09-03T15:55:16.842Z,38.00
2017-09-03T15:57:46.737Z,38.10
2017-09-03T16:00:17.069Z,37.80
2017-09-03T16:02:46.954Z,37.90
2017-09-03T16:05:17.144Z,38.30
2017-09-03T16:07:47.006Z,38.90
2017-09-03T16:10:17.294Z,39.60
2017-09-03T16:12:47.587Z,39.20
2017-09-03T16:15:18.491Z,39.20
2017-09-03T16:17:49.359Z,39.30
2017-09-03T16:20:18.870Z,39.30
2017-09-03T16:22:48.798Z,39.10
2017-09-03T16:25:18.755Z,41.60
2017-09-03T16:27:48.473Z,44.80
2017-09-03T16:30:21.227Z,45.70
2017-09-03T16:32:51.595Z,46.10
2017-09-03T16:35:47.202Z,46.20
2017-09-03T16:38:32.858Z,46.30
2017-09-03T16:41:14.699Z,45.90
2017-09-03T16:43:58.480Z,45.20
2017-09-03T16:46:34.210Z,45.00
2017-09-03T16:49:41.167Z,45.10
2017-09-03T16:52:22.464Z,44.70
2017-09-03T16:55:00.024Z,43.70
2017-09-03T16:57:33.661Z,43.90
2017-09-03T17:00:22.228Z,43.70
2017-09-03T17:02:54.948Z,43.70
2017-09-03T17:05:39.660Z,44.00
2017-09-03T17:08:13.767Z,43.90
2017-09-03T17:10:45.860Z,44.50
2017-09-03T17:13:16.076Z,45.30
2017-09-03T17:15:48.535Z,45.00
2017-09-03T17:18:22.322Z,45.20
2017-09-03T17:20:53.122Z,46.00
2017-09-03T17:23:23.743Z,46.30
2017-09-03T17:25:54.886Z,46.50
2017-09-03T17:28:24.286Z,46.50
2017-09-03T17:30:54.099Z,45.80
2017-09-03T17:33:24.570Z,45.60
2017-09-03T17:35:58.403Z,45.90
2017-09-03T17:38:30.855Z,45.30
2017-09-03T17:41:01.043Z,45.30
2017-09-03T17:43:33.844Z,45.50
2017-09-03T17:46:14.933Z,45.10
2017-09-03T17:49:26.714Z,44.80
2017-09-03T17:52:03.399Z,44.20
2017-09-03T17:54:34.008Z,44.10
2017-09-03T17:57:04.575Z,44.40
2017-09-03T17:59:35.552Z,44.30
2017-09-03T18:02:06.322Z,44.30
2017-09-03T18:04:40.107Z,44.10
2017-09-03T18:07:09.830Z,44.20
2017-09-03T18:09:39.422Z,44.00
2017-09-03T18:12:09.538Z,44.20
2017-09-03T18:14:39.894Z,44.40
2017-09-03T18:17:11.737Z,44.80
2017-09-03T18:19:41.520Z,44.70
2017-09-03T18:22:12.082Z,45.00
2017-09-03T18:24:42.236Z,44.70
2017-09-03T18:27:12.001Z,45.30
2017-09-03T18:29:42.198Z,45.30
2017-09-03T18:32:12.653Z,45.40
2017-09-03T18:34:47.472Z,45.10
2017-09-03T18:37:17.659Z,45.30
2017-09-03T18:39:47.784Z,45.30
2017-09-03T18:42:17.623Z,45.30
2017-09-03T18:44:47.364Z,45.70
2017-09-03T18:47:17.119Z,45.80
2017-09-03T18:49:48.770Z,46.10
2017-09-03T18:52:18.270Z,45.80
2017-09-03T18:54:54.259Z,46.60
2017-09-03T18:57:32.804Z,46.60
2017-09-03T19:00:04.136Z,46.70
2017-09-03T19:02:37.013Z,46.50
2017-09-03T19:05:07.269Z,46.50
2017-09-03T19:07:37.623Z,47.30
2017-09-03T19:10:11.830Z,47.00
2017-09-03T19:12:42.816Z,47.60
2017-09-03T19:15:16.678Z,47.60
2017-09-03T19:17:46.360Z,48.20
2017-09-03T19:20:15.941Z,48.80
2017-09-03T19:22:45.419Z,49.30
2017-09-03T19:25:15.821Z,49.50
2017-09-03T19:27:45.749Z,49.90
2017-09-03T19:30:16.498Z,50.00
2017-09-03T19:32:46.886Z,50.10
2017-09-03T19:35:22.881Z,50.10
2017-09-03T19:37:56.545Z,50.30
2017-09-03T19:40:32.521Z,50.40
2017-09-03T19:43:05.977Z,50.80
2017-09-03T19:45:36.336Z,51.20
2017-09-03T19:48:07.678Z,51.80
2017-09-03T19:50:38.725Z,52.30
2017-09-03T19:53:20.492Z,52.60
2017-09-03T19:55:51.033Z,52.60
2017-09-03T19:58:22.430Z,52.80
2017-09-03T20:00:55.012Z,53.50
2017-09-03T20:03:26.962Z,53.40
2017-09-03T20:05:58.670Z,53.90
2017-09-03T20:08:29.602Z,54.30
2017-09-03T20:11:00.187Z,55.40
2017-09-03T20:13:33.915Z,56.20
2017-09-03T20:16:10.118Z,56.40
2017-09-03T20:18:41.628Z,55.70
2017-09-03T20:21:13.224Z,55.80
2017-09-03T20:23:45.988Z,56.20
2017-09-03T20:26:16.370Z,56.80
2017-09-03T20:28:48.127Z,57.10
2017-09-03T20:31:29.986Z,57.40
2017-09-03T20:34:00.807Z,57.60
2017-09-03T20:36:31.872Z,58.60
2017-09-03T20:39:03.515Z,58.80
2017-09-03T20:42:48.895Z,58.80
2017-09-03T20:45:31.520Z,58.90
2017-09-03T20:48:03.319Z,59.40
2017-09-03T20:50:33.719Z,59.90
2017-09-03T20:53:03.943Z,60.20
2017-09-03T20:55:42.991Z,60.80
2017-09-03T20:58:12.787Z,62.00
2017-09-03T21:00:42.244Z,61.50
2017-09-03T21:03:11.855Z,61.90
2017-09-03T21:05:42.277Z,62.10
2017-09-03T21:08:13.649Z,62.20
2017-09-03T21:11:10.370Z,62.40
2017-09-03T21:13:39.946Z,62.70
2017-09-03T21:16:09.992Z,62.80
2017-09-03T21:18:39.976Z,63.10
2017-09-03T21:21:09.451Z,63.40
2017-09-03T21:23:38.749Z,63.20
2017-09-03T21:26:08.330Z,63.20
2017-09-03T21:28:39.767Z,63.90
2017-09-03T21:31:09.681Z,63.80
2017-09-03T21:34:07.199Z,64.30
2017-09-03T21:36:37.999Z,64.60
2017-09-03T21:39:07.497Z,64.90
2017-09-03T21:41:38.017Z,65.00
2017-09-03T21:44:19.184Z,65.00
2017-09-03T21:46:49.139Z,65.10
2017-09-03T21:49:19.038Z,65.20
2017-09-03T21:51:48.532Z,65.10
2017-09-03T21:54:17.987Z,65.30
2017-09-03T21:56:47.131Z,65.40
2017-09-03T21:59:16.409Z,65.60
2017-09-03T22:01:46.181Z,65.70
2017-09-03T22:04:15.453Z,65.90
2017-09-03T22:06:46.591Z,66.40
2017-09-03T22:09:16.735Z,66.50
2017-09-03T22:11:46.202Z,66.30
2017-09-03T22:14:15.612Z,66.60
2017-09-03T22:16:45.560Z,67.00
2017-09-03T22:19:15.957Z,67.30
2017-09-03T22:21:46.785Z,67.60
2017-09-03T22:24:16.946Z,67.60
2017-09-03T22:26:47.316Z,68.10
2017-09-03T22:29:17.395Z,68.10
2017-09-03T22:31:49.070Z,68.20
2017-09-03T22:34:19.424Z,68.30
2017-09-03T22:36:52.659Z,68.50
2017-09-03T22:39:24.213Z,69.10
2017-09-03T22:41:53.651Z,69.00
2017-09-03T22:44:26.636Z,69.30
2017-09-03T22:47:01.319Z,69.60
2017-09-03T22:49:31.859Z,69.90
2017-09-03T22:52:03.043Z,70.10
2017-09-03T22:54:34.125Z,70.20
2017-09-03T22:57:06.230Z,70.20
2017-09-03T22:59:37.031Z,70.20
2017-09-03T23:02:07.644Z,70.20
2017-09-03T23:04:39.959Z,70.20
2017-09-03T23:07:10.653Z,70.30
2017-09-03T23:09:44.420Z,70.80
2017-09-03T23:12:15.566Z,70.70
2017-09-03T23:14:45.034Z,71.00
2017-09-03T23:17:15.592Z,71.20
2017-09-03T23:19:45.418Z,71.20
2017-09-03T23:22:15.386Z,71.30
2017-09-03T23:24:44.965Z,71.50
2017-09-03T23:27:14.774Z,71.60
2017-09-03T23:29:43.895Z,71.90
2017-09-03T23:32:13.995Z,72.40
2017-09-03T23:34:44.316Z,72.80
2017-09-03T23:37:14.909Z,72.60
2017-09-03T23:39:44.177Z,73.00
2017-09-03T23:42:14.297Z,73.30
2017-09-03T23:44:45.283Z,73.40
2017-09-03T23:47:15.567Z,73.40
2017-09-03T23:49:44.982Z,74.20
2017-09-03T23:52:14.555Z,73.60
2017-09-03T23:54:43.918Z,73.70
2017-09-03T23:57:13.171Z,74.50
2017-09-03T23:59:42.560Z,73.60
